Time;durP1;ratioP1;P1;durP2;ratioP2;P2;SDS_P1;SDS_P2;PMS_P1;PMS_P2;Temp;Humidity;BMP_temperature;BMP_pressure;BME280_temperature;BME280_humidity;BME280_pressure;Samples;Min_cycle;Max_cycle;Signal;HPM_P1;HPM_P2
2020/12/10 00:01:08;;;;;;;6.13;5.13;;;4.60;99.90;;;;;;6180093;28;20814;-66
2020/12/10 00:04:11;;;;;;;5.57;5.07;;;4.60;99.90;;;;;;6180113;28;20482;-64
2020/12/10 00:07:14;;;;;;;4.30;4.00;;;4.50;99.90;;;;;;6180113;28;20655;-63
2020/12/10 00:10:16;;;;;;;3.90;3.60;;;4.50;99.90;;;;;;6168477;28;20470;-64
2020/12/10 00:17:41;;;;;;;4.73;4.33;;;4.40;99.90;;;;;;6170420;28;20434;-65
2020/12/10 00:20:44;;;;;;;4.87;4.47;;;4.40;99.90;;;;;;6179892;28;20466;-66
2020/12/10 00:23:46;;;;;;;4.67;4.20;;;4.40;99.90;;;;;;6179995;28;20786;-63
2020/12/10 00:26:49;;;;;;;4.20;3.90;;;4.40;99.90;;;;;;6179835;28;20450;-64
2020/12/10 00:29:51;;;;;;;5.30;4.80;;;4.40;99.90;;;;;;6179589;28;20496;-64
2020/12/10 00:32:54;;;;;;;5.30;4.80;;;4.50;99.90;;;;;;6179709;28;20481;-63
2020/12/10 00:35:57;;;;;;;4.93;4.53;;;4.50;99.90;;;;;;6179753;28;20457;-64
2020/12/10 00:38:59;;;;;;;4.93;4.43;;;4.50;99.90;;;;;;6179532;28;20485;-65
2020/12/10 00:42:02;;;;;;;4.77;4.23;;;4.50;99.90;;;;;;6177166;28;20508;-64
2020/12/10 00:45:04;;;;;;;4.87;4.47;;;4.60;99.90;;;;;;6178273;28;20470;-61
2020/12/10 00:48:07;;;;;;;7.10;4.77;;;4.60;99.90;;;;;;6177142;28;20465;-61
2020/12/10 00:51:10;;;;;;;4.93;4.40;;;4.60;99.90;;;;;;6176908;28;20466;-60
2020/12/10 00:54:12;;;;;;;4.93;4.53;;;4.70;99.90;;;;;;6177009;28;20470;-60
2020/12/10 00:57:15;;;;;;;4.67;4.27;;;4.70;99.90;;;;;;6177203;28;20528;-61
2020/12/10 01:00:17;;;;;;;5.30;4.80;;;4.70;99.90;;;;;;6176851;28;20478;-61
2020/12/10 01:03:20;;;;;;;5.33;4.93;;;4.80;99.90;;;;;;6186387;28;20470;-61
2020/12/10 01:06:23;;;;;;;5.47;4.70;;;4.70;99.90;;;;;;6191016;28;20825;-61
2020/12/10 01:09:25;;;;;;;5.70;5.20;;;4.70;99.90;;;;;;6189406;28;20893;-61
2020/12/10 01:12:27;;;;;;;4.60;4.20;;;4.80;99.90;;;;;;6190009;28;20496;-61
2020/12/10 01:15:33;;;;;;;5.20;4.70;;;4.70;99.90;;;;;;6188704;28;20465;-62
2020/12/10 01:18:35;;;;;;;6.33;5.30;;;4.80;99.90;;;;;;6183400;28;20473;-62
2020/12/10 01:21:38;;;;;;;5.57;5.00;;;4.70;99.90;;;;;;6178718;28;20617;-61
2020/12/10 01:24:40;;;;;;;5.73;5.33;;;4.60;99.90;;;;;;6178748;28;20467;-61
2020/12/10 01:27:42;;;;;;;6.83;4.77;;;4.60;99.90;;;;;;6178709;28;20813;-61
2020/12/10 01:30:45;;;;;;;5.57;5.07;;;4.60;99.90;;;;;;6178780;28;20485;-61
2020/12/10 01:33:47;;;;;;;5.93;5.43;;;4.60;99.90;;;;;;6178258;28;20626;-62
2020/12/10 01:36:50;;;;;;;4.70;4.30;;;4.60;99.90;;;;;;6178464;28;20480;-61
2020/12/10 01:39:53;;;;;;;6.50;5.90;;;4.60;99.90;;;;;;6178390;28;20474;-61
2020/12/10 01:42:55;;;;;;;6.03;5.43;;;4.50;99.90;;;;;;6178331;28;20474;-62
2020/12/10 01:45:57;;;;;;;6.10;5.60;;;4.40;99.90;;;;;;6178256;28;20465;-62
2020/12/10 01:49:01;;;;;;;6.00;5.50;;;4.40;99.90;;;;;;6177683;28;20474;-62
2020/12/10 01:52:05;;;;;;;7.23;5.57;;;4.40;99.90;;;;;;6177944;28;20779;-62
2020/12/10 01:55:07;;;;;;;6.30;5.17;;;4.40;99.90;;;;;;6177862;28;20969;-61
2020/12/10 01:58:10;;;;;;;5.63;5.10;;;4.40;99.90;;;;;;6177792;28;20469;-62
2020/12/10 02:01:13;;;;;;;6.67;5.80;;;4.30;99.90;;;;;;6177652;28;20966;-60
2020/12/10 02:04:26;;;;;;;7.33;6.60;;;4.30;99.90;;;;;;6177700;28;20597;-63
2020/12/10 02:07:30;;;;;;;7.53;6.93;;;4.30;99.90;;;;;;6177561;28;20510;-61
2020/12/10 02:10:33;;;;;;;9.73;7.20;;;4.20;99.90;;;;;;6177438;28;20488;-61
2020/12/10 02:13:35;;;;;;;7.63;6.57;;;4.20;99.90;;;;;;6177395;28;20470;-61
2020/12/10 02:16:37;;;;;;;8.87;7.57;;;4.30;99.90;;;;;;6177701;28;20485;-60
2020/12/10 02:19:39;;;;;;;9.60;8.63;;;4.20;99.90;;;;;;6177281;28;20520;-61
2020/12/10 02:22:42;;;;;;;8.23;7.20;;;4.20;99.90;;;;;;6177294;28;20484;-61
2020/12/10 02:25:45;;;;;;;8.23;7.43;;;4.20;99.90;;;;;;6177150;28;20990;-61
2020/12/10 02:28:47;;;;;;;8.37;7.57;;;4.20;99.90;;;;;;6177081;28;20481;-61
2020/12/10 02:31:50;;;;;;;11.97;8.57;;;4.20;99.90;;;;;;6176836;28;20489;-61
2020/12/10 02:34:52;;;;;;;9.20;7.87;;;4.20;99.90;;;;;;6176971;28;20473;-62
2020/12/10 02:37:58;;;;;;;9.63;7.90;;;4.20;99.90;;;;;;6176902;28;20485;-62
2020/12/10 02:41:01;;;;;;;9.57;8.57;;;4.20;99.90;;;;;;6176759;28;20497;-62
2020/12/10 02:44:04;;;;;;;10.20;8.83;;;4.10;99.90;;;;;;6176810;28;20552;-62
2020/12/10 02:47:07;;;;;;;9.83;8.87;;;4.10;99.90;;;;;;6176771;28;20483;-62
2020/12/10 02:50:09;;;;;;;10.73;9.27;;;4.10;99.90;;;;;;6176686;28;20482;-62
2020/12/10 02:53:11;;;;;;;10.10;9.10;;;4.10;99.90;;;;;;6176854;28;20474;-62
2020/12/10 02:56:17;;;;;;;9.47;8.57;;;4.10;99.90;;;;;;6176784;28;20470;-62
2020/12/10 02:59:19;;;;;;;10.07;9.13;;;4.10;99.90;;;;;;6177282;28;20478;-62
2020/12/10 03:02:21;;;;;;;10.00;9.00;;;4.10;99.90;;;;;;6169701;28;20481;-61
2020/12/10 03:05:24;;;;;;;10.77;9.40;;;4.10;99.90;;;;;;6181735;28;20481;-63
2020/12/10 03:08:26;;;;;;;10.07;8.97;;;4.10;99.90;;;;;;6181621;28;20477;-62
2020/12/10 03:11:29;;;;;;;9.47;8.30;;;4.10;99.90;;;;;;6181534;28;20512;-61
2020/12/10 03:14:32;;;;;;;10.93;9.83;;;4.00;99.90;;;;;;6181514;28;20473;-61
2020/12/10 03:17:34;;;;;;;10.33;9.33;;;4.10;99.90;;;;;;6181829;28;20492;-61
2020/12/10 03:20:37;;;;;;;9.77;8.87;;;4.10;99.90;;;;;;6181220;28;20488;-62
2020/12/10 03:23:39;;;;;;;9.87;8.87;;;4.10;99.90;;;;;;6181237;28;20484;-62
2020/12/10 03:26:42;;;;;;;10.57;9.67;;;4.10;99.90;;;;;;6181267;28;20461;-61
2020/12/10 03:29:44;;;;;;;11.00;9.90;;;4.00;99.90;;;;;;6181667;28;20895;-62
2020/12/10 03:32:46;;;;;;;10.80;9.43;;;4.00;99.90;;;;;;6181145;28;20482;-62
2020/12/10 03:35:48;;;;;;;10.30;9.30;;;4.00;99.90;;;;;;6181209;28;20453;-61
2020/12/10 03:38:51;;;;;;;10.20;9.30;;;3.90;99.90;;;;;;6180970;28;20438;-62
2020/12/10 03:41:55;;;;;;;10.30;8.87;;;3.90;99.90;;;;;;6180897;28;20561;-61
2020/12/10 03:44:57;;;;;;;10.63;9.53;;;3.80;99.90;;;;;;6180994;28;20469;-61
2020/12/10 03:48:00;;;;;;;9.77;8.67;;;3.70;99.90;;;;;;6181114;28;20445;-61
2020/12/10 03:51:02;;;;;;;9.73;8.70;;;3.70;99.90;;;;;;6180652;28;20474;-62
2020/12/10 03:54:04;;;;;;;10.00;9.10;;;3.80;99.90;;;;;;6180478;28;20458;-61
2020/12/10 03:57:07;;;;;;;9.23;8.33;;;3.90;99.90;;;;;;6180966;28;20461;-62
2020/12/10 04:00:09;;;;;;;9.73;8.83;;;3.90;99.90;;;;;;6180798;28;20477;-62
2020/12/10 04:03:12;;;;;;;9.87;8.67;;;3.80;99.90;;;;;;6176141;28;20466;-62
2020/12/10 04:06:14;;;;;;;8.07;7.37;;;3.80;99.90;;;;;;6180661;28;20481;-62
2020/12/10 04:09:17;;;;;;;8.50;7.70;;;3.80;99.90;;;;;;6180514;28;20859;-62
2020/12/10 04:12:20;;;;;;;7.93;7.13;;;3.70;99.90;;;;;;6180054;28;20481;-61
2020/12/10 04:15:22;;;;;;;9.57;8.60;;;3.70;99.90;;;;;;6180563;28;20478;-61
2020/12/10 04:18:24;;;;;;;8.47;7.77;;;3.80;99.90;;;;;;6180250;28;20488;-62
2020/12/10 04:21:26;;;;;;;9.10;8.20;;;3.80;99.90;;;;;;6180122;28;20482;-62
2020/12/10 04:24:29;;;;;;;8.00;7.30;;;3.80;99.90;;;;;;6179859;28;20989;-61
2020/12/10 04:27:32;;;;;;;8.03;7.30;;;3.80;99.90;;;;;;6179953;28;20945;-62
2020/12/10 04:30:34;;;;;;;8.37;7.67;;;3.80;99.90;;;;;;6179886;28;20783;-62
2020/12/10 04:33:37;;;;;;;7.53;6.93;;;3.80;99.90;;;;;;6179958;28;20482;-62
2020/12/10 04:36:40;;;;;;;8.43;7.57;;;3.80;99.90;;;;;;6180524;28;20775;-61
2020/12/10 04:39:42;;;;;;;8.13;7.43;;;3.80;99.90;;;;;;6179697;28;20992;-62
2020/12/10 04:42:47;;;;;;;7.53;6.07;;;3.70;99.90;;;;;;6179381;28;20553;-61
2020/12/10 04:45:50;;;;;;;7.90;7.10;;;3.70;99.90;;;;;;6179577;28;20953;-61
2020/12/10 04:48:53;;;;;;;7.37;6.77;;;3.80;99.90;;;;;;6179481;28;20556;-62
2020/12/10 04:51:55;;;;;;;6.70;6.10;;;3.70;99.90;;;;;;6179491;28;20486;-61
2020/12/10 04:54:58;;;;;;;6.07;5.57;;;3.70;99.90;;;;;;6179010;28;20474;-61
2020/12/10 04:58:02;;;;;;;6.07;5.57;;;3.60;99.90;;;;;;6179574;28;20474;-62
2020/12/10 05:01:04;;;;;;;6.00;5.50;;;3.70;99.90;;;;;;6179138;28;20819;-62
2020/12/10 05:04:06;;;;;;;5.73;5.10;;;3.70;99.90;;;;;;6179195;28;20489;-62
2020/12/10 05:07:08;;;;;;;6.57;5.97;;;3.60;99.90;;;;;;6174634;28;20481;-60
2020/12/10 05:10:10;;;;;;;5.83;5.33;;;3.60;99.90;;;;;;6178628;28;20527;-61
2020/12/10 05:13:15;;;;;;;5.73;5.30;;;3.70;99.90;;;;;;6178876;28;20481;-61
2020/12/10 05:16:20;;;;;;;6.17;5.67;;;3.70;99.90;;;;;;6178891;28;20485;-61
2020/12/10 05:19:23;;;;;;;5.90;5.40;;;3.70;99.90;;;;;;6178879;28;20474;-61
2020/12/10 05:22:25;;;;;;;5.97;5.50;;;3.70;99.90;;;;;;6179048;28;20779;-60
2020/12/10 05:25:27;;;;;;;6.20;5.60;;;3.80;99.90;;;;;;6177668;28;20481;-60
2020/12/10 05:28:43;;;;;;;6.73;6.13;;;3.80;99.90;;;;;;6178599;28;20552;-61
2020/12/10 05:31:45;;;;;;;5.83;5.33;;;3.80;99.90;;;;;;6178095;28;20474;-61
2020/12/10 05:34:48;;;;;;;5.73;5.13;;;3.80;99.90;;;;;;6178346;28;20473;-61
2020/12/10 05:37:51;;;;;;;6.30;5.80;;;3.80;99.90;;;;;;6178745;28;20621;-61
2020/12/10 05:40:53;;;;;;;5.97;5.47;;;3.70;99.90;;;;;;6178066;28;20831;-61
2020/12/10 05:44:12;;;;;;;6.37;5.83;;;3.70;99.90;;;;;;6178133;28;20810;-61
2020/12/10 05:47:14;;;;;;;5.67;5.17;;;3.60;99.90;;;;;;6177856;28;20975;-62
2020/12/10 05:50:24;;;;;;;6.00;5.50;;;3.70;99.90;;;;;;6177954;28;20494;-61
2020/12/10 05:53:30;;;;;;;6.10;5.50;;;3.70;99.90;;;;;;6178087;28;21082;-61
2020/12/10 05:56:37;;;;;;;6.57;5.87;;;3.70;99.90;;;;;;6178383;28;20474;-61
2020/12/10 05:59:40;;;;;;;6.50;5.33;;;3.80;99.90;;;;;;6178218;28;20482;-61
2020/12/10 06:02:43;;;;;;;7.37;5.93;;;3.80;99.90;;;;;;6177593;28;20454;-62
2020/12/10 06:05:48;;;;;;;6.87;5.70;;;3.80;99.90;;;;;;6177544;28;20454;-61
2020/12/10 06:08:51;;;;;;;6.77;6.23;;;3.80;99.90;;;;;;6177895;28;20431;-61
2020/12/10 06:12:01;;;;;;;6.10;5.60;;;3.70;99.90;;;;;;6168438;28;20469;-62
2020/12/10 06:15:04;;;;;;;7.53;6.27;;;3.80;99.90;;;;;;6177488;28;20493;-62
2020/12/10 06:18:08;;;;;;;7.30;6.60;;;3.80;99.90;;;;;;6177577;28;20465;-62
2020/12/10 06:21:32;;;;;;;6.67;6.07;;;3.80;99.90;;;;;;6177177;28;20958;-62
2020/12/10 06:24:35;;;;;;;6.57;5.97;;;3.70;99.90;;;;;;6177317;28;20979;-62
2020/12/10 06:27:37;;;;;;;7.83;6.80;;;3.80;99.90;;;;;;6186548;28;20470;-62
2020/12/10 06:30:40;;;;;;;6.60;6.00;;;3.80;99.90;;;;;;6187772;28;20814;-62
2020/12/10 06:33:44;;;;;;;6.10;5.30;;;3.80;99.90;;;;;;6189502;28;20474;-61
2020/12/10 06:36:46;;;;;;;7.20;6.50;;;3.80;99.90;;;;;;6185097;28;20497;-62
2020/12/10 06:39:50;;;;;;;6.60;6.00;;;3.80;99.90;;;;;;6192842;28;20479;-62
2020/12/10 06:42:52;;;;;;;7.67;6.97;;;3.80;99.90;;;;;;6200670;28;20492;-61
2020/12/10 06:45:59;;;;;;;7.53;6.73;;;3.80;99.90;;;;;;6200713;28;20523;-61
2020/12/10 06:49:01;;;;;;;6.03;5.43;;;3.80;99.90;;;;;;6201009;28;20472;-61
2020/12/10 06:52:14;;;;;;;8.20;6.43;;;3.80;99.90;;;;;;6197944;28;20988;-62
2020/12/10 06:55:17;;;;;;;8.10;7.40;;;3.80;99.90;;;;;;6193673;28;20560;-62
2020/12/10 06:58:19;;;;;;;7.60;6.80;;;3.80;99.90;;;;;;6200389;28;20477;-61
2020/12/10 07:01:34;;;;;;;6.13;5.53;;;3.90;99.90;;;;;;6199473;28;20481;-65
2020/12/10 07:04:46;;;;;;;6.50;5.63;;;3.90;99.90;;;;;;6200818;28;20483;-65
2020/12/10 07:08:05;;;;;;;9.33;7.07;;;3.90;99.90;;;;;;6200011;28;20473;-64
2020/12/10 07:11:07;;;;;;;6.20;5.70;;;3.90;99.90;;;;;;6198383;28;20477;-65
2020/12/10 07:14:25;;;;;;;7.77;6.87;;;3.90;99.90;;;;;;6198182;28;20487;-63
2020/12/10 07:17:29;;;;;;;7.40;6.80;;;3.90;99.90;;;;;;6189605;28;20635;-65
2020/12/10 07:20:33;;;;;;;6.83;5.67;;;3.90;99.90;;;;;;6198728;28;20491;-64
2020/12/10 07:23:35;;;;;;;7.23;6.63;;;3.90;99.90;;;;;;6198718;28;20473;-65
2020/12/10 07:26:38;;;;;;;6.90;6.10;;;3.90;99.90;;;;;;6200513;28;20472;-63
2020/12/10 07:29:40;;;;;;;7.33;6.00;;;3.90;99.90;;;;;;6200509;28;20472;-64
2020/12/10 07:32:43;;;;;;;7.70;6.30;;;4.00;99.90;;;;;;6200348;28;20835;-64
2020/12/10 07:35:46;;;;;;;7.57;6.77;;;4.10;99.90;;;;;;6200245;28;20523;-64
2020/12/10 07:38:48;;;;;;;7.07;6.43;;;4.10;99.90;;;;;;6199104;28;20445;-63
2020/12/10 07:41:50;;;;;;;8.57;7.00;;;4.00;99.90;;;;;;6178286;28;20484;-64
2020/12/10 07:44:52;;;;;;;8.60;6.57;;;4.10;99.90;;;;;;6174022;28;20758;-64
2020/12/10 07:47:56;;;;;;;6.57;5.90;;;4.10;99.90;;;;;;6175355;28;20445;-64
2020/12/10 07:50:58;;;;;;;8.70;6.80;;;4.10;99.90;;;;;;6178190;28;20457;-64
2020/12/10 07:54:03;;;;;;;8.97;7.40;;;4.20;99.90;;;;;;6179786;28;20980;-64
2020/12/10 07:57:11;;;;;;;10.00;7.40;;;4.20;99.90;;;;;;6180911;28;20470;-65
2020/12/10 08:00:17;;;;;;;9.47;7.57;;;4.10;99.90;;;;;;6180463;28;20787;-64
2020/12/10 08:03:43;;;;;;;8.83;7.13;;;4.20;99.90;;;;;;6180425;28;20609;-64
2020/12/10 08:06:46;;;;;;;8.07;6.80;;;4.20;99.90;;;;;;6189213;28;20480;-63
2020/12/10 08:09:50;;;;;;;10.00;7.60;;;4.30;99.90;;;;;;6187303;28;20478;-64
2020/12/10 08:13:15;;;;;;;10.10;7.57;;;4.30;99.90;;;;;;6197818;28;20484;-64
2020/12/10 08:16:18;;;;;;;8.60;7.00;;;4.30;99.90;;;;;;6189482;28;20466;-63
2020/12/10 08:19:25;;;;;;;7.57;6.87;;;4.40;99.90;;;;;;6180953;28;20528;-64
2020/12/10 08:22:28;;;;;;;8.50;7.63;;;4.40;99.90;;;;;;6186900;28;20474;-62
2020/12/10 08:25:30;;;;;;;12.40;6.90;;;4.50;99.90;;;;;;6191457;28;20792;-63
2020/12/10 08:28:32;;;;;;;8.90;7.43;;;4.50;99.90;;;;;;6189914;28;20550;-64
2020/12/10 08:31:35;;;;;;;11.10;7.67;;;4.60;99.90;;;;;;6190813;28;20476;-64
2020/12/10 08:34:38;;;;;;;8.53;7.73;;;4.80;99.90;;;;;;6189845;28;20469;-64
2020/12/10 08:37:42;;;;;;;11.47;8.77;;;4.80;99.90;;;;;;6189637;28;20473;-63
2020/12/10 08:40:44;;;;;;;8.83;7.93;;;4.90;99.90;;;;;;6175902;28;20488;-65
2020/12/10 08:43:53;;;;;;;11.20;7.70;;;4.90;99.90;;;;;;6161884;28;20466;-64
2020/12/10 08:47:01;;;;;;;9.43;7.60;;;5.00;99.90;;;;;;6179341;28;20484;-65
2020/12/10 08:50:23;;;;;;;8.73;7.90;;;5.00;99.90;;;;;;6159340;28;20479;-63
2020/12/10 08:53:26;;;;;;;9.10;7.73;;;5.10;99.90;;;;;;6155040;29;20479;-63
2020/12/10 08:56:35;;;;;;;9.83;8.70;;;5.10;99.90;;;;;;6157086;28;20479;-62
2020/12/10 08:59:37;;;;;;;10.80;9.53;;;5.10;99.90;;;;;;6178032;28;20466;-66
2020/12/10 09:02:39;;;;;;;11.07;8.97;;;5.20;99.90;;;;;;6178801;28;20485;-63
2020/12/10 09:05:42;;;;;;;9.50;8.20;;;5.20;99.90;;;;;;6178749;28;20966;-64
2020/12/10 09:08:45;;;;;;;15.90;9.70;;;5.20;99.90;;;;;;6178207;28;20921;-66
2020/12/10 09:11:48;;;;;;;12.03;10.77;;;5.20;99.90;;;;;;6178697;28;20465;-63
2020/12/10 09:14:50;;;;;;;12.80;9.17;;;5.20;99.90;;;;;;6166008;28;20474;-63
2020/12/10 09:17:53;;;;;;;9.80;8.80;;;5.20;99.90;;;;;;6154561;29;20446;-65
2020/12/10 09:20:56;;;;;;;10.77;9.60;;;5.30;99.90;;;;;;6150154;29;20463;-65
2020/12/10 09:23:58;;;;;;;10.17;9.17;;;5.30;99.90;;;;;;6178903;28;20446;-64
2020/12/10 09:27:06;;;;;;;11.07;9.90;;;5.30;99.90;;;;;;6176694;28;20500;-64
2020/12/10 09:30:11;;;;;;;10.30;8.57;;;5.30;99.90;;;;;;6152489;29;20470;-65
2020/12/10 09:33:13;;;;;;;15.70;10.30;;;5.30;99.90;;;;;;6153350;28;20487;-63
2020/12/10 09:36:16;;;;;;;12.23;10.93;;;5.30;99.90;;;;;;6176034;28;20474;-63
2020/12/10 09:39:18;;;;;;;10.10;8.83;;;5.30;99.90;;;;;;6175530;28;20978;-62
2020/12/10 09:42:21;;;;;;;13.80;9.30;;;5.20;99.90;;;;;;6175393;28;20820;-65
2020/12/10 09:45:23;;;;;;;9.80;8.90;;;5.30;99.90;;;;;;6176081;28;20834;-63
2020/12/10 09:48:26;;;;;;;10.43;9.30;;;5.30;99.90;;;;;;6186676;28;20488;-63
2020/12/10 09:51:35;;;;;;;13.90;9.30;;;5.30;99.90;;;;;;6175600;28;20992;-62
2020/12/10 09:54:51;;;;;;;9.33;8.03;;;5.30;99.90;;;;;;6175747;28;20478;-64
2020/12/10 09:57:54;;;;;;;10.90;8.73;;;5.30;99.90;;;;;;6175900;28;20478;-64
2020/12/10 10:00:56;;;;;;;10.77;9.20;;;5.30;99.90;;;;;;6175722;28;20480;-62
2020/12/10 10:03:58;;;;;;;9.80;8.37;;;5.20;99.90;;;;;;6175650;28;20477;-60
2020/12/10 10:07:05;;;;;;;9.10;8.27;;;5.30;99.90;;;;;;6175806;28;20482;-63
2020/12/10 10:10:08;;;;;;;9.47;7.90;;;5.30;99.90;;;;;;6175018;28;20855;-61
2020/12/10 10:13:10;;;;;;;8.10;7.30;;;5.30;99.90;;;;;;6175450;28;20608;-59
2020/12/10 10:16:12;;;;;;;8.10;7.30;;;5.30;99.90;;;;;;6175031;28;21004;-63
2020/12/10 10:19:15;;;;;;;8.00;7.20;;;5.40;99.90;;;;;;6175535;28;20489;-62
2020/12/10 10:22:18;;;;;;;7.30;6.70;;;5.40;99.90;;;;;;6175049;28;20838;-63
2020/12/10 10:25:21;;;;;;;7.17;6.47;;;5.50;99.90;;;;;;6171266;28;20481;-64
2020/12/10 10:28:23;;;;;;;7.17;6.47;;;5.50;99.90;;;;;;6175072;28;20483;-61
2020/12/10 10:31:25;;;;;;;12.00;6.83;;;5.50;99.90;;;;;;6174938;28;20558;-63
2020/12/10 10:34:28;;;;;;;7.93;6.77;;;5.50;99.90;;;;;;6174791;28;20482;-62
2020/12/10 10:37:31;;;;;;;10.60;8.90;;;5.60;99.90;;;;;;6175512;28;20806;-63
2020/12/10 10:40:33;;;;;;;16.80;9.67;;;5.60;99.90;;;;;;6198933;28;20477;-61
2020/12/10 10:43:35;;;;;;;9.97;8.57;;;5.60;99.90;;;;;;6176400;28;20481;-63
2020/12/10 10:46:37;;;;;;;8.17;7.37;;;5.60;99.90;;;;;;6174826;28;20477;-65
2020/12/10 10:49:40;;;;;;;8.20;7.43;;;5.60;99.90;;;;;;6174767;28;20985;-63
2020/12/10 10:52:44;;;;;;;7.03;6.33;;;5.70;99.90;;;;;;6193647;28;20515;-61
2020/12/10 10:55:48;;;;;;;7.50;6.20;;;5.80;99.90;;;;;;6198762;28;20473;-66
2020/12/10 10:58:51;;;;;;;5.00;4.60;;;5.80;99.90;;;;;;6198801;28;20825;-65
2020/12/10 11:01:54;;;;;;;6.00;5.27;;;5.80;99.90;;;;;;6198735;28;20477;-60
2020/12/10 11:04:56;;;;;;;7.30;6.60;;;5.80;99.90;;;;;;6184097;28;20482;-64
2020/12/10 11:08:00;;;;;;;6.53;5.83;;;5.80;99.90;;;;;;6174551;28;20493;-63
2020/12/10 11:11:02;;;;;;;9.07;6.93;;;5.80;99.90;;;;;;6174547;28;20505;-64
2020/12/10 11:14:04;;;;;;;6.77;6.17;;;5.80;99.90;;;;;;6174359;28;20827;-65
2020/12/10 11:17:06;;;;;;;7.20;6.50;;;5.80;99.90;;;;;;6183061;28;21016;-59
2020/12/10 11:20:08;;;;;;;5.20;4.57;;;5.80;99.90;;;;;;6198782;28;20494;-62
2020/12/10 11:23:13;;;;;;;7.20;4.60;;;5.80;99.90;;;;;;6202467;28;20469;-60
2020/12/10 11:26:17;;;;;;;7.57;3.80;;;5.80;99.90;;;;;;6205261;28;20480;-59
2020/12/10 11:29:19;;;;;;;3.57;3.27;;;5.80;99.90;;;;;;6205476;28;20844;-58
2020/12/10 11:32:22;;;;;;;3.80;3.37;;;5.70;99.90;;;;;;6195520;28;20502;-60
2020/12/10 11:35:25;;;;;;;3.30;3.00;;;5.70;99.90;;;;;;6202960;28;20477;-60
2020/12/10 11:38:28;;;;;;;3.40;3.10;;;5.80;99.90;;;;;;6203055;28;20487;-60
2020/12/10 11:41:30;;;;;;;3.63;3.33;;;5.80;99.90;;;;;;6198680;28;20481;-60
2020/12/10 11:44:32;;;;;;;4.53;4.13;;;5.90;99.90;;;;;;6179864;28;20809;-58
2020/12/10 11:47:34;;;;;;;3.70;3.40;;;5.90;99.90;;;;;;6180162;28;20474;-60
2020/12/10 11:50:37;;;;;;;4.37;3.97;;;6.00;99.90;;;;;;6180252;28;20997;-60
2020/12/10 11:53:40;;;;;;;3.10;2.70;;;6.10;99.90;;;;;;6180499;28;20940;-60
2020/12/10 11:56:42;;;;;;;3.63;3.03;;;6.10;99.90;;;;;;6180334;28;20481;-60
2020/12/10 11:59:45;;;;;;;3.50;3.20;;;6.20;99.90;;;;;;6179832;28;21000;-61
2020/12/10 12:02:51;;;;;;;2.80;2.60;;;6.20;99.90;;;;;;6179492;28;20460;-60
2020/12/10 12:05:54;;;;;;;2.97;2.77;;;6.30;99.90;;;;;;6179807;28;20605;-61
2020/12/10 12:08:57;;;;;;;2.77;2.57;;;6.30;99.90;;;;;;6180205;28;20910;-61
2020/12/10 12:12:01;;;;;;;3.30;2.97;;;6.20;99.90;;;;;;6180301;28;20466;-62
2020/12/10 12:15:04;;;;;;;3.30;3.00;;;6.20;99.90;;;;;;6180358;28;20477;-63
2020/12/10 12:18:07;;;;;;;3.13;2.93;;;6.30;99.90;;;;;;6180122;28;20465;-62
2020/12/10 12:21:09;;;;;;;3.47;3.07;;;6.30;99.90;;;;;;6179944;28;20480;-62
2020/12/10 12:24:12;;;;;;;4.37;4.07;;;6.30;99.90;;;;;;6179893;28;20474;-61
2020/12/10 12:27:19;;;;;;;4.70;3.90;;;6.30;99.90;;;;;;6180263;28;20470;-61
2020/12/10 12:30:21;;;;;;;4.40;3.93;;;6.40;99.90;;;;;;6179493;28;20989;-63
2020/12/10 12:33:24;;;;;;;4.27;3.50;;;6.40;99.90;;;;;;6170028;28;20557;-63
2020/12/10 12:36:27;;;;;;;2.73;2.50;;;6.50;99.90;;;;;;6179943;28;20564;-64
2020/12/10 12:39:30;;;;;;;3.13;2.67;;;6.50;99.90;;;;;;6179826;28;20478;-63
2020/12/10 12:42:35;;;;;;;2.97;2.63;;;6.50;99.90;;;;;;6179155;28;20620;-61
2020/12/10 12:45:38;;;;;;;3.00;2.70;;;6.60;99.90;;;;;;6179744;28;20481;-61
2020/12/10 12:48:40;;;;;;;2.97;2.77;;;6.60;99.90;;;;;;6179211;28;20485;-60
2020/12/10 12:51:43;;;;;;;2.97;2.53;;;6.60;99.90;;;;;;6179264;28;20620;-67
2020/12/10 12:54:46;;;;;;;3.20;2.90;;;6.60;99.90;;;;;;6178961;28;20478;-62
2020/12/10 12:57:48;;;;;;;4.00;3.60;;;6.60;99.90;;;;;;6179062;28;20478;-60
2020/12/10 13:00:50;;;;;;;4.17;3.83;;;6.60;99.90;;;;;;6179001;28;20497;-61
2020/12/10 13:03:53;;;;;;;3.57;3.27;;;6.60;99.90;;;;;;6179304;28;20473;-62
2020/12/10 13:06:55;;;;;;;4.80;4.30;;;6.60;99.90;;;;;;6178942;28;20477;-62
2020/12/10 13:09:58;;;;;;;6.30;5.13;;;6.50;99.90;;;;;;6178938;28;20478;-62
2020/12/10 13:13:15;;;;;;;7.33;6.47;;;6.50;99.90;;;;;;6178680;28;20978;-62
2020/12/10 13:16:17;;;;;;;5.07;4.60;;;6.50;99.90;;;;;;6178722;28;20473;-62
2020/12/10 13:19:20;;;;;;;5.93;4.83;;;6.50;99.90;;;;;;6178419;28;20872;-62
2020/12/10 13:22:22;;;;;;;5.43;4.87;;;6.50;99.90;;;;;;6197433;28;20492;-62
2020/12/10 13:25:26;;;;;;;6.43;5.83;;;6.50;99.90;;;;;;6194540;28;20481;-61
2020/12/10 13:28:28;;;;;;;6.30;5.70;;;6.50;99.90;;;;;;6186021;28;20487;-66
2020/12/10 13:31:33;;;;;;;6.93;6.30;;;6.50;99.90;;;;;;6186525;28;20474;-66
2020/12/10 13:34:35;;;;;;;9.63;7.30;;;6.40;99.90;;;;;;6191213;28;20995;-65
2020/12/10 13:37:37;;;;;;;7.83;7.10;;;6.40;99.90;;;;;;6180846;28;20826;-62
2020/12/10 13:40:40;;;;;;;9.00;7.50;;;6.40;99.90;;;;;;6194831;28;20965;-62
2020/12/10 13:43:43;;;;;;;8.23;7.50;;;6.40;99.90;;;;;;6177463;28;20484;-62
2020/12/10 13:46:45;;;;;;;8.20;7.27;;;6.30;99.90;;;;;;6177213;28;20477;-64
2020/12/10 13:49:48;;;;;;;8.87;8.07;;;6.30;99.90;;;;;;6177700;28;20501;-61
2020/12/10 13:52:50;;;;;;;11.70;8.23;;;6.20;99.90;;;;;;6177724;28;20466;-64
2020/12/10 13:55:53;;;;;;;9.77;7.67;;;6.30;99.90;;;;;;6177355;28;20489;-62
2020/12/10 13:58:55;;;;;;;9.73;8.47;;;6.30;99.90;;;;;;6177721;28;20553;-63
2020/12/10 14:01:58;;;;;;;11.90;8.73;;;6.30;99.90;;;;;;6177344;28;20470;-64
2020/12/10 14:05:01;;;;;;;9.67;8.70;;;6.20;99.90;;;;;;6177791;28;20469;-62
2020/12/10 14:08:15;;;;;;;9.77;8.77;;;6.30;99.90;;;;;;6177318;28;20474;-63
2020/12/10 14:11:23;;;;;;;10.73;8.27;;;6.30;99.90;;;;;;6194116;28;20498;-61
2020/12/10 14:14:25;;;;;;;9.20;8.50;;;6.20;99.90;;;;;;6178354;28;20977;-63
2020/12/10 14:17:30;;;;;;;8.47;7.47;;;6.20;99.90;;;;;;6180389;28;20466;-62
2020/12/10 14:20:33;;;;;;;9.93;7.90;;;6.20;99.90;;;;;;6176735;28;20997;-60
2020/12/10 14:23:36;;;;;;;8.20;7.27;;;6.20;99.90;;;;;;6176814;28;20462;-62
2020/12/10 14:26:39;;;;;;;10.50;7.80;;;6.20;99.90;;;;;;6163052;28;20483;-62
2020/12/10 14:29:42;;;;;;;7.93;7.13;;;6.20;99.90;;;;;;6152965;28;20481;-61
2020/12/10 14:32:45;;;;;;;8.20;7.40;;;6.20;99.90;;;;;;6152783;28;20486;-60
2020/12/10 14:35:53;;;;;;;10.63;9.57;;;6.10;99.90;;;;;;6152674;28;20574;-60
2020/12/10 14:38:56;;;;;;;9.00;8.10;;;6.10;99.90;;;;;;6148812;28;20549;-63
2020/12/10 14:41:59;;;;;;;9.50;7.87;;;6.10;99.90;;;;;;6161390;28;20490;-58
2020/12/10 14:45:01;;;;;;;7.57;6.87;;;6.10;99.90;;;;;;6176693;28;20442;-60
2020/12/10 14:48:04;;;;;;;9.77;8.07;;;6.00;99.90;;;;;;6168612;28;21035;-60
2020/12/10 14:51:08;;;;;;;14.23;11.97;;;6.00;99.90;;;;;;6164229;28;20471;-60
2020/12/10 14:54:12;;;;;;;10.70;9.60;;;6.00;99.90;;;;;;6153419;28;20500;-61
2020/12/10 14:57:16;;;;;;;13.40;8.40;;;5.90;99.90;;;;;;6175367;28;20981;-61
2020/12/10 15:00:18;;;;;;;10.87;9.80;;;5.80;99.90;;;;;;6175365;28;20811;-61
2020/12/10 15:03:20;;;;;;;12.83;9.80;;;5.70;99.90;;;;;;6169466;28;20478;-61
2020/12/10 15:06:22;;;;;;;14.43;10.90;;;5.50;99.90;;;;;;6152404;29;20466;-61
2020/12/10 15:09:25;;;;;;;11.93;10.30;;;5.40;99.90;;;;;;6152883;29;20481;-63
2020/12/10 15:12:28;;;;;;;13.10;11.20;;;5.30;99.90;;;;;;6152252;29;20540;-60
2020/12/10 15:15:30;;;;;;;15.33;11.17;;;5.30;99.90;;;;;;6152304;29;21082;-61
2020/12/10 15:18:32;;;;;;;13.23;11.93;;;5.20;99.90;;;;;;6152024;29;20482;-62
2020/12/10 15:21:35;;;;;;;14.37;12.17;;;5.20;99.90;;;;;;6168466;28;20484;-60
2020/12/10 15:24:39;;;;;;;19.00;11.30;;;5.20;99.90;;;;;;6175963;28;20480;-61
2020/12/10 15:27:43;;;;;;;14.77;12.63;;;5.20;99.90;;;;;;6176187;28;20505;-61
2020/12/10 15:30:45;;;;;;;18.40;13.03;;;5.20;99.90;;;;;;6176213;28;20469;-60
2020/12/10 15:33:47;;;;;;;17.43;14.37;;;5.20;99.90;;;;;;6176027;28;20648;-60
2020/12/10 15:36:54;;;;;;;15.80;14.10;;;5.10;99.90;;;;;;6175753;28;20810;-60
2020/12/10 15:39:57;;;;;;;18.50;14.07;;;5.10;99.90;;;;;;6175774;28;20488;-61
2020/12/10 15:43:02;;;;;;;14.37;12.87;;;5.10;99.90;;;;;;6165699;28;20478;-62
2020/12/10 15:46:05;;;;;;;14.33;12.93;;;5.10;99.90;;;;;;6166720;28;20810;-61
2020/12/10 15:49:10;;;;;;;14.70;13.03;;;5.10;99.90;;;;;;6166283;28;20480;-61
2020/12/10 15:52:14;;;;;;;15.50;13.83;;;5.10;99.90;;;;;;6175568;28;20946;-64
2020/12/10 15:55:17;;;;;;;15.03;13.50;;;5.10;99.90;;;;;;6175781;28;20491;-64
2020/12/10 15:58:20;;;;;;;19.10;13.13;;;5.10;99.90;;;;;;6175901;28;20480;-62
2020/12/10 16:01:23;;;;;;;16.80;13.73;;;5.10;99.90;;;;;;6176116;28;20490;-61
2020/12/10 16:04:25;;;;;;;16.80;12.97;;;5.10;99.90;;;;;;6175693;28;20494;-60
2020/12/10 16:07:28;;;;;;;19.97;14.10;;;5.10;99.90;;;;;;6175789;28;20470;-62